Time;durP1;ratioP1;P1;durP2;ratioP2;P2;SDS_P1;SDS_P2;PMS_P1;PMS_P2;Temp;Humidity;BMP_temperature;BMP_pressure;BME280_temperature;BME280_humidity;BME280_pressure;Samples;Min_cycle;Max_cycle;Signal;HPM_P1;HPM_P2
2023/03/28 00:01:51;;;;;;;4.33;3.10;;;4.80;99.90;;;;;;5095871;28;21002;-79
2023/03/28 00:04:21;;;;;;;4.80;3.27;;;4.80;99.90;;;;;;5097201;28;20176;-78
2023/03/28 00:06:50;;;;;;;3.47;2.50;;;4.80;99.90;;;;;;5097118;28;20562;-79
2023/03/28 00:09:17;;;;;;;3.53;3.22;;;4.80;99.90;;;;;;5095872;28;20689;-78
2023/03/28 00:11:43;;;;;;;4.88;2.88;;;4.80;99.90;;;;;;5095862;28;20633;-78
2023/03/28 00:14:09;;;;;;;3.80;2.97;;;4.70;99.90;;;;;;5096975;28;20227;-78
2023/03/28 00:16:38;;;;;;;3.97;2.93;;;4.70;99.90;;;;;;5096706;28;20169;-77
2023/03/28 00:19:10;;;;;;;3.20;2.20;;;4.70;99.90;;;;;;5095475;28;21011;-77
2023/03/28 00:21:40;;;;;;;2.85;2.50;;;4.70;99.90;;;;;;5095447;28;20638;-79
2023/03/28 00:24:09;;;;;;;2.80;2.55;;;4.70;99.90;;;;;;5096820;28;20719;-79
2023/03/28 00:26:36;;;;;;;2.75;2.42;;;4.70;99.90;;;;;;5096584;28;20172;-79
2023/03/28 00:29:04;;;;;;;2.90;2.60;;;4.70;99.90;;;;;;5096728;28;20184;-78
2023/03/28 00:31:33;;;;;;;3.13;2.60;;;4.70;99.90;;;;;;5095358;28;20180;-79
2023/03/28 00:33:59;;;;;;;3.40;3.10;;;4.70;99.90;;;;;;5095547;28;20233;-79
2023/03/28 00:36:28;;;;;;;3.03;2.72;;;4.70;99.90;;;;;;5096168;28;20215;-78
2023/03/28 00:38:56;;;;;;;3.10;2.75;;;4.70;99.90;;;;;;5096712;28;20669;-78
2023/03/28 00:41:25;;;;;;;6.80;3.05;;;4.70;99.90;;;;;;5096581;28;20263;-79
2023/03/28 00:43:53;;;;;;;4.00;3.35;;;4.60;99.90;;;;;;5096868;28;20200;-80
2023/03/28 00:46:23;;;;;;;3.58;3.10;;;4.50;99.90;;;;;;5096358;28;20249;-78
2023/03/28 00:49:11;;;;;;;3.63;2.67;;;4.50;99.90;;;;;;5096162;28;20721;-78
2023/03/28 00:51:41;;;;;;;3.58;2.90;;;4.50;99.90;;;;;;5096215;28;20165;-79
2023/03/28 00:54:11;;;;;;;3.25;2.70;;;4.50;99.90;;;;;;5096368;28;20190;-78
2023/03/28 00:56:41;;;;;;;3.75;2.60;;;4.50;99.90;;;;;;5096212;28;20161;-77
2023/03/28 00:59:11;;;;;;;3.55;2.53;;;4.50;99.90;;;;;;5094755;28;20303;-79
2023/03/28 01:01:36;;;;;;;3.47;3.03;;;4.50;99.90;;;;;;5096302;28;20582;-78
2023/03/28 01:04:02;;;;;;;3.30;3.00;;;4.50;99.90;;;;;;5096088;28;20177;-79
2023/03/28 01:06:31;;;;;;;3.87;2.73;;;4.50;99.90;;;;;;5096083;28;20633;-78
2023/03/28 01:09:01;;;;;;;2.65;2.45;;;4.50;99.90;;;;;;5094659;28;20420;-79
2023/03/28 01:11:27;;;;;;;4.35;3.08;;;4.50;99.90;;;;;;5094699;28;20513;-79
2023/03/28 01:13:54;;;;;;;5.93;2.88;;;4.50;99.90;;;;;;5095966;28;20236;-78
2023/03/28 01:16:21;;;;;;;15.80;4.68;;;4.50;99.90;;;;;;5094548;28;20180;-77
2023/03/28 01:18:51;;;;;;;2.72;2.53;;;4.50;99.90;;;;;;5095990;28;20220;-78
2023/03/28 01:22:07;;;;;;;3.22;2.80;;;4.40;99.90;;;;;;5095699;28;20206;-77
2023/03/28 01:24:54;;;;;;;4.78;3.53;;;4.40;99.90;;;;;;5068690;28;20673;-78
2023/03/28 01:27:42;;;;;;;4.15;2.78;;;4.30;99.90;;;;;;5094324;28;20240;-78
2023/03/28 01:30:45;;;;;;;5.32;2.78;;;4.30;99.90;;;;;;5094311;28;20169;-77
2023/03/28 01:33:26;;;;;;;3.33;2.70;;;4.20;99.90;;;;;;5094368;28;20669;-78
2023/03/28 01:36:13;;;;;;;5.15;2.85;;;4.20;99.90;;;;;;5095394;28;20173;-78
2023/03/28 01:38:53;;;;;;;4.85;3.08;;;4.20;99.90;;;;;;5095647;28;20277;-79
2023/03/28 01:41:34;;;;;;;4.10;2.90;;;4.20;99.90;;;;;;5095347;28;20164;-78
2023/03/28 01:44:28;;;;;;;3.42;3.05;;;4.20;99.90;;;;;;5095286;28;20169;-78
2023/03/28 01:47:30;;;;;;;3.65;2.83;;;4.20;99.90;;;;;;5095086;28;20664;-79
2023/03/28 01:50:21;;;;;;;3.30;2.80;;;4.20;99.90;;;;;;5094245;28;20164;-79
2023/03/28 01:53:10;;;;;;;3.40;3.10;;;4.20;99.90;;;;;;5093809;28;20209;-79
2023/03/28 01:55:47;;;;;;;3.45;3.15;;;4.10;99.90;;;;;;5093803;28;20633;-78
2023/03/28 01:58:34;;;;;;;4.78;3.05;;;4.20;99.90;;;;;;5093713;28;20536;-78
2023/03/28 02:01:12;;;;;;;3.47;3.10;;;4.10;99.90;;;;;;5093693;28;20187;-79
2023/03/28 02:03:42;;;;;;;5.32;3.40;;;4.10;99.90;;;;;;5094745;28;20192;-77
2023/03/28 02:06:10;;;;;;;3.83;3.10;;;4.10;99.90;;;;;;5093636;28;20184;-78
2023/03/28 02:08:39;;;;;;;8.27;3.28;;;4.10;99.90;;;;;;5094587;28;20197;-78
2023/03/28 02:11:07;;;;;;;3.55;3.25;;;4.10;99.90;;;;;;5094754;28;20256;-80
2023/03/28 02:13:40;;;;;;;3.92;3.63;;;4.10;99.90;;;;;;5093205;28;20263;-79
2023/03/28 02:16:07;;;;;;;4.53;4.07;;;4.00;99.90;;;;;;5093704;28;20715;-79
2023/03/28 02:18:40;;;;;;;3.58;3.20;;;4.00;99.90;;;;;;5093372;28;20700;-80
2023/03/28 02:21:12;;;;;;;4.63;3.47;;;4.00;99.90;;;;;;5094716;28;20210;-78
2023/03/28 02:23:41;;;;;;;3.83;3.47;;;4.00;99.90;;;;;;5094451;28;20696;-80
2023/03/28 02:26:07;;;;;;;6.13;3.75;;;4.00;99.90;;;;;;5093205;28;20183;-78
2023/03/28 02:28:35;;;;;;;4.20;3.67;;;4.00;99.90;;;;;;5093238;28;20208;-79
2023/03/28 02:31:03;;;;;;;5.30;3.53;;;4.00;99.90;;;;;;5093165;28;20405;-78
2023/03/28 02:33:38;;;;;;;3.45;3.15;;;4.00;99.90;;;;;;5093286;28;20272;-78
2023/03/28 02:36:46;;;;;;;4.40;3.25;;;4.00;99.90;;;;;;5094349;28;20237;-78
2023/03/28 02:39:20;;;;;;;4.97;3.92;;;4.00;99.90;;;;;;5079835;28;20641;-79
2023/03/28 02:41:54;;;;;;;4.43;3.45;;;3.90;99.90;;;;;;5094004;28;20172;-79
2023/03/28 02:44:38;;;;;;;3.20;2.90;;;3.90;99.90;;;;;;5092943;28;20194;-78
2023/03/28 02:47:07;;;;;;;4.18;3.72;;;3.90;99.90;;;;;;5094293;28;20607;-77
2023/03/28 02:49:44;;;;;;;4.75;3.60;;;3.80;99.90;;;;;;5094134;28;20625;-78
2023/03/28 02:52:20;;;;;;;4.20;3.80;;;3.80;99.90;;;;;;5092817;28;20227;-79
2023/03/28 02:55:02;;;;;;;5.10;3.95;;;3.80;99.90;;;;;;5094128;28;20149;-78
2023/03/28 02:57:38;;;;;;;4.78;4.00;;;3.80;99.90;;;;;;5092771;28;20262;-78
2023/03/28 03:00:10;;;;;;;6.28;4.53;;;3.80;99.90;;;;;;5092648;28;20212;-79
2023/03/28 03:02:37;;;;;;;3.80;3.38;;;3.80;99.90;;;;;;5094156;28;20605;-79
2023/03/28 03:05:03;;;;;;;4.35;3.55;;;3.80;99.90;;;;;;5094042;28;20259;-78
2023/03/28 03:07:30;;;;;;;7.35;3.58;;;3.80;99.90;;;;;;5092471;28;20250;-79
2023/03/28 03:09:56;;;;;;;4.75;3.15;;;3.80;99.90;;;;;;5093782;28;20168;-77
2023/03/28 03:12:22;;;;;;;6.47;3.95;;;3.80;99.90;;;;;;5093899;28;20261;-78
2023/03/28 03:14:49;;;;;;;4.10;3.70;;;3.70;99.90;;;;;;5092315;28;20239;-77
2023/03/28 03:17:19;;;;;;;5.10;3.75;;;3.70;99.90;;;;;;5093828;28;20545;-78
2023/03/28 03:19:45;;;;;;;4.63;3.60;;;3.70;99.90;;;;;;5093708;28;20235;-80
2023/03/28 03:22:11;;;;;;;4.20;3.80;;;3.60;99.90;;;;;;5092418;28;20572;-78
2023/03/28 03:24:38;;;;;;;4.45;3.05;;;3.60;99.90;;;;;;5092429;28;20957;-79
2023/03/28 03:27:03;;;;;;;5.03;3.38;;;3.60;99.90;;;;;;5092273;28;20270;-79
2023/03/28 03:29:29;;;;;;;5.13;3.40;;;3.60;99.90;;;;;;5093815;28;20165;-79
2023/03/28 03:31:55;;;;;;;4.63;3.40;;;3.70;99.90;;;;;;5093496;28;20486;-79
2023/03/28 03:34:23;;;;;;;4.00;3.70;;;3.60;99.90;;;;;;5093676;28;20255;-78
2023/03/28 03:36:48;;;;;;;7.20;3.65;;;3.60;99.90;;;;;;5093490;28;20164;-79
2023/03/28 03:39:14;;;;;;;4.70;4.27;;;3.60;99.90;;;;;;5092265;28;20261;-79
2023/03/28 03:41:40;;;;;;;3.67;3.30;;;3.60;99.90;;;;;;5093367;28;20403;-79
2023/03/28 03:44:06;;;;;;;4.80;3.60;;;3.60;99.90;;;;;;5092270;28;20173;-79
2023/03/28 03:46:32;;;;;;;5.37;3.60;;;3.50;99.90;;;;;;5092076;28;20575;-78
2023/03/28 03:48:57;;;;;;;5.80;4.20;;;3.50;99.90;;;;;;5092136;28;20798;-80
2023/03/28 03:51:23;;;;;;;5.47;4.10;;;3.50;99.90;;;;;;5091948;28;20209;-79
2023/03/28 03:53:49;;;;;;;7.00;4.43;;;3.50;99.90;;;;;;5093814;28;20249;-78
2023/03/28 03:56:15;;;;;;;5.20;4.32;;;3.50;99.90;;;;;;5092095;28;20180;-77
2023/03/28 03:58:41;;;;;;;6.33;4.27;;;3.50;99.90;;;;;;5093119;28;20223;-78
2023/03/28 04:01:12;;;;;;;6.13;4.37;;;3.50;99.90;;;;;;5091849;28;20392;-79
2023/03/28 04:03:39;;;;;;;5.30;4.20;;;3.50;99.90;;;;;;5093740;28;20449;-77
2023/03/28 04:06:05;;;;;;;5.28;4.65;;;3.50;99.90;;;;;;5092996;28;20169;-77
2023/03/28 04:08:31;;;;;;;7.43;4.93;;;3.50;99.90;;;;;;5084908;28;20208;-79
2023/03/28 04:10:56;;;;;;;5.70;4.25;;;3.50;99.90;;;;;;5093211;28;20672;-79
2023/03/28 04:13:22;;;;;;;5.47;4.70;;;3.50;99.90;;;;;;5096101;28;20204;-80
2023/03/28 04:15:48;;;;;;;6.40;4.97;;;3.50;99.90;;;;;;5095765;28;20176;-80
2023/03/28 04:18:16;;;;;;;6.50;5.23;;;3.50;99.90;;;;;;5095644;28;20448;-80
2023/03/28 04:20:45;;;;;;;7.82;5.20;;;3.50;99.90;;;;;;5096214;28;20177;-80
2023/03/28 04:23:11;;;;;;;7.30;5.38;;;3.50;99.90;;;;;;5091926;28;20201;-81
2023/03/28 04:25:40;;;;;;;8.90;5.10;;;3.50;99.90;;;;;;5080993;28;20646;-82
2023/03/28 04:28:08;;;;;;;7.30;6.03;;;3.50;99.90;;;;;;5076148;28;20465;-80
2023/03/28 04:30:34;;;;;;;7.82;5.47;;;3.50;99.90;;;;;;5076770;28;20169;-80
2023/03/28 04:33:00;;;;;;;5.90;5.22;;;3.40;99.90;;;;;;5079056;28;20289;-80
2023/03/28 04:35:28;;;;;;;8.70;5.80;;;3.40;99.90;;;;;;5090811;28;20204;-82
2023/03/28 04:37:56;;;;;;;8.73;5.70;;;3.40;99.90;;;;;;5085825;28;20552;-80
2023/03/28 04:40:23;;;;;;;8.32;6.05;;;3.40;99.90;;;;;;5071249;28;20220;-83
2023/03/28 04:42:49;;;;;;;11.35;6.45;;;3.30;99.90;;;;;;5072701;28;20197;-79
2023/03/28 04:45:14;;;;;;;8.20;6.80;;;3.40;99.90;;;;;;5089067;28;20164;-81
2023/03/28 04:47:40;;;;;;;8.47;6.70;;;3.40;99.90;;;;;;5089343;28;20205;-80
2023/03/28 04:50:08;;;;;;;11.60;6.50;;;3.40;99.90;;;;;;5091617;28;20441;-81
2023/03/28 04:52:34;;;;;;;8.88;6.90;;;3.40;99.90;;;;;;5087220;28;20642;-82
2023/03/28 04:55:00;;;;;;;12.20;7.15;;;3.40;99.90;;;;;;5097743;28;20213;-82
2023/03/28 04:57:26;;;;;;;8.93;6.13;;;3.40;99.90;;;;;;5111469;28;20733;-81
2023/03/28 04:59:51;;;;;;;9.80;6.93;;;3.40;99.90;;;;;;5075397;28;20548;-81
2023/03/28 05:02:17;;;;;;;8.57;6.60;;;3.40;99.90;;;;;;5089845;28;20287;-83
2023/03/28 05:04:43;;;;;;;7.27;6.47;;;3.40;99.90;;;;;;5082615;28;20704;-81
2023/03/28 05:07:09;;;;;;;10.90;7.05;;;3.40;99.90;;;;;;5075732;28;20662;-82
2023/03/28 05:09:36;;;;;;;9.40;6.70;;;3.40;99.90;;;;;;5075393;28;20176;-81
2023/03/28 05:12:02;;;;;;;7.65;6.80;;;3.40;99.90;;;;;;5090227;28;20969;-82
2023/03/28 05:14:28;;;;;;;9.17;7.50;;;3.50;99.90;;;;;;5096099;28;20234;-80
2023/03/28 05:16:53;;;;;;;8.40;7.03;;;3.50;99.90;;;;;;5092797;28;20453;-81
2023/03/28 05:19:19;;;;;;;7.90;7.10;;;3.60;99.90;;;;;;5084506;28;20204;-82
2023/03/28 05:21:45;;;;;;;9.45;6.75;;;3.60;99.90;;;;;;5074973;28;20257;-80
2023/03/28 05:24:11;;;;;;;10.20;7.40;;;3.60;99.90;;;;;;5074273;28;20706;-79
2023/03/28 05:26:37;;;;;;;8.00;7.20;;;3.60;99.90;;;;;;5100182;28;20263;-79
2023/03/28 05:29:03;;;;;;;7.40;6.70;;;3.70;99.90;;;;;;5092941;28;20218;-80
2023/03/28 05:31:29;;;;;;;8.27;7.25;;;3.70;99.90;;;;;;5090365;28;20173;-80
2023/03/28 05:33:55;;;;;;;8.52;6.30;;;3.80;99.90;;;;;;5091140;28;20562;-80
2023/03/28 05:36:22;;;;;;;8.85;7.10;;;3.80;99.90;;;;;;5089270;28;20211;-80
2023/03/28 05:38:48;;;;;;;9.10;7.15;;;3.80;99.90;;;;;;5091949;28;20746;-78
2023/03/28 05:41:14;;;;;;;10.00;7.22;;;3.80;99.90;;;;;;5092056;28;20176;-78
2023/03/28 05:43:40;;;;;;;9.05;7.47;;;3.90;99.90;;;;;;5089188;28;20204;-78
2023/03/28 05:46:06;;;;;;;8.97;7.30;;;3.90;99.90;;;;;;5090737;28;20191;-80
2023/03/28 05:48:32;;;;;;;8.27;6.60;;;3.90;99.90;;;;;;5091378;28;20448;-81
2023/03/28 05:50:57;;;;;;;9.40;7.20;;;4.00;99.90;;;;;;5089189;28;20428;-82
2023/03/28 05:53:23;;;;;;;12.27;7.63;;;4.00;99.90;;;;;;5086757;28;21134;-80
2023/03/28 05:55:49;;;;;;;6.37;5.77;;;4.00;99.90;;;;;;5088714;28;20409;-82
2023/03/28 05:58:16;;;;;;;10.63;7.20;;;4.10;99.90;;;;;;5092026;28;20451;-81
2023/03/28 06:00:43;;;;;;;8.82;6.47;;;4.10;99.90;;;;;;5091417;28;20261;-80
2023/03/28 06:03:09;;;;;;;6.95;6.00;;;4.20;99.90;;;;;;5092189;28;20204;-83
2023/03/28 06:05:36;;;;;;;7.13;6.40;;;4.30;99.90;;;;;;5089776;28;20184;-81
2023/03/28 06:08:01;;;;;;;8.75;6.35;;;4.30;99.90;;;;;;5087913;28;20211;-82
2023/03/28 06:10:27;;;;;;;9.83;6.90;;;4.30;99.90;;;;;;5069638;28;20181;-81
2023/03/28 06:12:53;;;;;;;8.50;6.63;;;4.40;99.90;;;;;;5084967;28;20199;-83
2023/03/28 06:15:19;;;;;;;9.07;6.90;;;4.50;99.90;;;;;;5086828;28;20762;-80
2023/03/28 06:17:44;;;;;;;8.57;6.30;;;4.50;99.90;;;;;;5079054;28;20224;-83
2023/03/28 06:20:10;;;;;;;9.20;7.10;;;4.50;99.90;;;;;;5085469;28;20307;-82
2023/03/28 06:22:38;;;;;;;10.13;7.40;;;4.60;99.90;;;;;;5081194;28;20224;-81
2023/03/28 06:25:05;;;;;;;9.65;6.43;;;4.70;99.90;;;;;;5084919;28;20669;-79
2023/03/28 06:27:31;;;;;;;7.32;6.63;;;4.80;99.90;;;;;;5087691;28;20216;-77
2023/03/28 06:29:58;;;;;;;9.93;7.18;;;4.90;99.90;;;;;;5092291;28;20226;-80
2023/03/28 06:32:25;;;;;;;9.73;7.30;;;5.00;99.90;;;;;;5088385;28;20208;-80
2023/03/28 06:34:50;;;;;;;7.70;6.63;;;5.10;99.90;;;;;;5085356;28;20177;-78
2023/03/28 06:37:16;;;;;;;8.50;7.33;;;5.10;99.90;;;;;;5089947;28;20751;-81
2023/03/28 06:39:42;;;;;;;8.43;7.40;;;5.20;99.90;;;;;;5087150;28;20418;-80
2023/03/28 06:42:07;;;;;;;9.10;7.33;;;5.20;99.90;;;;;;5087587;28;20253;-81
2023/03/28 06:44:33;;;;;;;7.63;6.83;;;5.20;99.90;;;;;;5088363;28;20185;-78
2023/03/28 06:46:59;;;;;;;7.77;6.97;;;5.30;99.90;;;;;;5087531;28;20200;-80
2023/03/28 06:49:25;;;;;;;12.10;6.67;;;5.30;99.90;;;;;;5083131;28;20712;-79
2023/03/28 06:51:51;;;;;;;10.97;6.70;;;5.40;99.90;;;;;;5083230;28;20547;-79
2023/03/28 06:54:17;;;;;;;9.30;6.47;;;5.40;99.90;;;;;;5090670;28;20206;-78
2023/03/28 06:56:43;;;;;;;10.23;7.50;;;5.50;99.90;;;;;;5086353;28;20208;-78
2023/03/28 06:59:09;;;;;;;7.70;6.60;;;5.70;99.90;;;;;;5089619;28;20277;-79
2023/03/28 07:01:35;;;;;;;7.07;6.07;;;5.80;99.90;;;;;;5084782;28;20176;-81
2023/03/28 07:04:01;;;;;;;7.30;6.10;;;5.80;99.90;;;;;;5085289;28;21714;-79
2023/03/28 07:06:28;;;;;;;6.10;5.60;;;5.90;99.90;;;;;;5087608;28;20195;-79
2023/03/28 07:08:56;;;;;;;5.93;5.32;;;5.90;99.90;;;;;;5082112;28;20212;-79
2023/03/28 07:11:21;;;;;;;7.85;5.80;;;6.00;99.90;;;;;;5080579;28;20546;-78
2023/03/28 07:13:47;;;;;;;5.57;5.07;;;6.00;99.90;;;;;;5085166;28;20256;-80
2023/03/28 07:16:14;;;;;;;6.00;5.30;;;6.10;99.90;;;;;;5081205;28;20181;-80
2023/03/28 07:18:40;;;;;;;7.03;6.00;;;6.20;99.90;;;;;;5080266;28;20212;-80
2023/03/28 07:21:12;;;;;;;7.83;5.97;;;6.30;99.90;;;;;;5087610;28;20176;-79
2023/03/28 07:23:38;;;;;;;8.07;6.13;;;6.30;99.90;;;;;;5081340;28;20464;-79
2023/03/28 07:26:06;;;;;;;8.38;6.50;;;6.40;99.90;;;;;;5088663;28;20185;-79
2023/03/28 07:28:31;;;;;;;6.47;5.50;;;6.50;99.90;;;;;;5086670;28;20204;-78
2023/03/28 07:31:00;;;;;;;6.83;6.13;;;6.70;99.90;;;;;;5087852;28;20587;-79
2023/03/28 07:33:26;;;;;;;10.27;5.70;;;6.70;99.90;;;;;;5078057;28;20689;-78
2023/03/28 07:35:51;;;;;;;7.17;5.30;;;6.80;99.90;;;;;;5090017;28;20188;-79
2023/03/28 07:38:18;;;;;;;7.80;5.90;;;6.80;99.90;;;;;;5083304;28;20457;-79
2023/03/28 07:40:44;;;;;;;8.73;6.40;;;6.80;99.90;;;;;;5077774;28;20490;-79
2023/03/28 07:43:10;;;;;;;5.90;5.38;;;6.90;99.90;;;;;;5081091;28;20209;-79
2023/03/28 07:45:36;;;;;;;6.20;5.60;;;7.00;99.90;;;;;;5084281;28;20180;-80
2023/03/28 07:48:03;;;;;;;7.85;5.60;;;7.10;99.90;;;;;;5090355;28;20203;-81
2023/03/28 07:50:29;;;;;;;9.20;5.38;;;7.20;99.90;;;;;;5091845;28;20661;-79
2023/03/28 07:52:59;;;;;;;5.50;4.78;;;7.20;99.90;;;;;;5087540;28;20209;-79
2023/03/28 07:55:26;;;;;;;8.32;5.82;;;7.30;99.90;;;;;;5092239;28;20277;-79
2023/03/28 07:57:53;;;;;;;6.00;5.15;;;7.40;99.90;;;;;;5087758;28;20214;-79
2023/03/28 08:00:23;;;;;;;6.78;5.40;;;7.40;99.90;;;;;;5094156;28;20246;-80
2023/03/28 08:02:50;;;;;;;5.18;4.57;;;7.40;99.90;;;;;;5096156;28;20196;-80
2023/03/28 08:05:16;;;;;;;5.75;5.25;;;7.50;99.90;;;;;;5090615;28;20184;-79
2023/03/28 08:07:44;;;;;;;5.70;4.85;;;7.50;99.90;;;;;;5087800;28;20200;-79
2023/03/28 08:10:11;;;;;;;5.28;4.40;;;7.60;99.90;;;;;;5094267;28;20264;-79
2023/03/28 08:12:37;;;;;;;7.60;4.55;;;7.70;99.90;;;;;;5077591;28;20205;-79
2023/03/28 08:15:04;;;;;;;6.82;4.85;;;7.80;99.90;;;;;;5088144;28;20332;-80
2023/03/28 08:17:30;;;;;;;7.28;4.70;;;7.90;99.90;;;;;;5091628;28;20211;-81
2023/03/28 08:19:56;;;;;;;6.55;4.97;;;7.90;99.90;;;;;;5090006;28;20212;-81
2023/03/28 08:22:23;;;;;;;6.07;4.67;;;8.10;99.90;;;;;;5089266;28;20530;-80
2023/03/28 08:24:49;;;;;;;6.60;4.80;;;8.20;99.90;;;;;;5088520;28;20435;-79
2023/03/28 08:27:15;;;;;;;5.63;5.03;;;8.30;99.90;;;;;;5083760;28;20604;-80
2023/03/28 08:29:41;;;;;;;7.83;5.10;;;8.50;99.90;;;;;;5087654;28;20252;-81
2023/03/28 08:32:07;;;;;;;6.23;4.30;;;8.90;99.90;;;;;;5085124;28;20458;-80
2023/03/28 08:34:33;;;;;;;7.50;4.93;;;9.50;99.90;;;;;;5092656;28;20199;-80
2023/03/28 08:36:59;;;;;;;5.60;4.10;;;10.30;99.90;;;;;;5079450;28;20431;-80
2023/03/28 08:39:25;;;;;;;5.60;4.35;;;11.40;99.90;;;;;;5089768;28;20555;-80
2023/03/28 08:42:16;;;;;;;3.72;3.40;;;12.30;99.90;;;;;;5090397;28;20211;-80
2023/03/28 08:44:53;;;;;;;9.02;4.25;;;13.30;99.00;;;;;;5090466;28;20222;-81
2023/03/28 08:47:31;;;;;;;6.07;4.03;;;14.00;97.70;;;;;;5092328;28;20237;-81
2023/03/28 08:50:00;;;;;;;3.53;3.23;;;14.90;95.50;;;;;;5093746;28;20401;-81
2023/03/28 08:52:27;;;;;;;3.57;3.27;;;15.40;93.30;;;;;;5090720;28;20490;-81
2023/03/28 08:55:01;;;;;;;5.17;3.50;;;15.60;91.60;;;;;;5092262;28;20576;-80
2023/03/28 08:57:33;;;;;;;5.87;3.80;;;15.30;90.40;;;;;;5083931;28;20473;-81
2023/03/28 09:00:14;;;;;;;4.10;3.70;;;14.60;88.90;;;;;;5091207;28;20832;-80
2023/03/28 09:02:41;;;;;;;4.50;3.43;;;13.50;90.50;;;;;;5089346;28;20453;-81
2023/03/28 09:05:38;;;;;;;4.80;3.50;;;12.70;91.10;;;;;;5089248;28;20452;-81
2023/03/28 09:08:45;;;;;;;4.20;3.10;;;12.10;91.50;;;;;;5091002;28;20476;-80
2023/03/28 09:11:26;;;;;;;5.45;3.35;;;11.50;92.30;;;;;;5089363;28;20168;-81
2023/03/28 09:14:19;;;;;;;3.55;3.25;;;10.90;92.40;;;;;;5091789;28;20264;-81
2023/03/28 09:16:54;;;;;;;6.85;3.58;;;10.70;93.30;;;;;;5086005;28;20707;-82
2023/03/28 09:19:32;;;;;;;4.40;3.28;;;11.10;95.40;;;;;;5078233;28;20196;-81
2023/03/28 09:22:04;;;;;;;5.10;3.23;;;12.00;94.40;;;;;;5088291;28;20282;-81
2023/03/28 09:24:55;;;;;;;3.10;2.27;;;13.10;92.20;;;;;;5089237;28;20417;-82
2023/03/28 09:27:49;;;;;;;5.03;3.00;;;13.60;90.30;;;;;;5092506;28;20441;-81
2023/03/28 09:30:18;;;;;;;4.72;3.25;;;13.50;90.90;;;;;;5084780;28;20857;-80
2023/03/28 09:32:44;;;;;;;2.83;2.63;;;12.90;90.90;;;;;;5099381;28;20204;-81
2023/03/28 09:35:19;;;;;;;5.00;3.97;;;12.30;91.60;;;;;;5094193;28;20421;-81
2023/03/28 09:37:52;;;;;;;3.13;2.92;;;11.80;91.40;;;;;;5091840;28;20203;-82
2023/03/28 09:40:32;;;;;;;4.20;2.65;;;11.40;92.10;;;;;;5090806;28;20651;-81
2023/03/28 09:43:29;;;;;;;3.25;2.67;;;11.10;92.40;;;;;;5090930;28;20243;-82
2023/03/28 09:46:07;;;;;;;2.70;2.50;;;11.20;92.90;;;;;;5081359;28;20309;-80
2023/03/28 09:48:37;;;;;;;3.13;2.50;;;11.10;92.70;;;;;;5086415;28;20865;-80
2023/03/28 09:51:05;;;;;;;3.83;2.22;;;10.90;93.00;;;;;;5085290;28;20195;-81
2023/03/28 09:53:35;;;;;;;3.25;2.58;;;10.60;92.80;;;;;;5107202;28;20200;-81
2023/03/28 09:56:10;;;;;;;4.65;2.22;;;10.40;93.10;;;;;;5109473;28;20203;-80
2023/03/28 09:58:58;;;;;;;4.57;2.70;;;10.40;92.70;;;;;;5111052;28;20651;-81
2023/03/28 10:01:49;;;;;;;2.50;2.30;;;10.60;94.70;;;;;;5095449;28;20180;-81
2023/03/28 10:04:35;;;;;;;2.50;2.30;;;10.70;92.90;;;;;;5089765;28;20589;-80
2023/03/28 10:07:10;;;;;;;2.90;2.03;;;10.60;93.50;;;;;;5106717;28;20555;-80
2023/03/28 10:09:47;;;;;;;2.47;2.28;;;10.50;93.70;;;;;;5107640;28;20171;-80
2023/03/28 10:12:30;;;;;;;2.45;2.25;;;10.30;94.60;;;;;;5089087;28;20294;-80
2023/03/28 10:14:56;;;;;;;2.80;2.22;;;10.30;93.60;;;;;;5091267;28;20231;-80
2023/03/28 10:17:36;;;;;;;3.70;2.53;;;10.30;93.80;;;;;;5098046;28;20295;-81
2023/03/28 10:20:14;;;;;;;3.97;2.58;;;10.30;93.30;;;;;;5075298;28;20204;-81
2023/03/28 10:22:40;;;;;;;4.25;2.47;;;10.30;92.60;;;;;;5096945;28;20206;-80
2023/03/28 10:25:13;;;;;;;5.15;2.53;;;10.20;92.40;;;;;;5086176;28;20186;-81
2023/03/28 10:27:43;;;;;;;2.45;2.25;;;10.10;93.20;;;;;;5095230;28;20229;-82
2023/03/28 10:30:09;;;;;;;4.75;2.50;;;10.10;93.80;;;;;;5087833;28;20485;-81
2023/03/28 10:32:35;;;;;;;2.97;2.70;;;10.30;94.50;;;;;;5087750;28;20287;-79
2023/03/28 10:35:29;;;;;;;2.30;2.10;;;10.50;94.10;;;;;;5080924;28;20428;-79
2023/03/28 10:38:02;;;;;;;4.00;2.20;;;10.70;93.40;;;;;;5075368;28;20285;-81
2023/03/28 10:40:31;;;;;;;3.10;2.50;;;10.80;92.40;;;;;;5094183;28;20258;-82
2023/03/28 10:42:58;;;;;;;2.25;2.08;;;10.80;93.00;;;;;;5084607;28;20211;-81
2023/03/28 10:45:34;;;;;;;4.18;2.88;;;11.00;92.50;;;;;;5089275;28;20540;-80
2023/03/28 10:48:07;;;;;;;5.65;2.65;;;11.00;92.50;;;;;;5086471;28;20214;-81
2023/03/28 10:50:42;;;;;;;2.92;2.70;;;10.90;91.70;;;;;;5085674;28;20188;-81
2023/03/28 10:53:30;;;;;;;2.85;2.35;;;10.70;92.70;;;;;;5081941;28;20208;-81
2023/03/28 10:56:09;;;;;;;4.75;2.47;;;10.40;93.00;;;;;;5086835;28;20187;-82
2023/03/28 10:58:44;;;;;;;2.47;1.98;;;10.20;94.00;;;;;;5086330;28;20211;-81
2023/03/28 11:01:23;;;;;;;2.10;1.83;;;10.10;93.50;;;;;;5087797;28;20247;-81
2023/03/28 11:04:18;;;;;;;4.05;1.90;;;10.10;94.20;;;;;;5090104;28;20196;-81
2023/03/28 11:06:53;;;;;;;3.38;2.53;;;10.20;93.80;;;;;;5089232;28;20195;-81
2023/03/28 11:09:47;;;;;;;7.07;4.90;;;10.30;93.80;;;;;;5088544;28;20180;-82
2023/03/28 11:12:37;;;;;;;12.27;5.53;;;10.40;94.10;;;;;;5085938;28;20665;-81
2023/03/28 11:15:37;;;;;;;5.68;4.60;;;10.60;93.70;;;;;;5086283;28;20236;-80
2023/03/28 11:18:12;;;;;;;8.90;6.35;;;10.70;93.80;;;;;;5079090;28;20220;-81
2023/03/28 11:20:42;;;;;;;9.07;5.30;;;10.90;93.60;;;;;;5105661;28;20203;-80
2023/03/28 11:23:24;;;;;;;5.32;2.55;;;11.10;93.40;;;;;;5095818;28;20200;-80
2023/03/28 11:26:01;;;;;;;4.88;2.30;;;11.30;93.20;;;;;;5098907;28;20183;-80
2023/03/28 11:28:33;;;;;;;6.07;2.28;;;11.50;93.30;;;;;;5096340;28;20215;-82
2023/03/28 11:31:00;;;;;;;4.25;2.17;;;11.60;92.30;;;;;;5095696;28;20259;-81
2023/03/28 11:33:42;;;;;;;4.53;2.03;;;11.60;92.90;;;;;;5094650;28;20200;-80
2023/03/28 11:36:17;;;;;;;2.42;1.70;;;11.70;92.20;;;;;;5091403;28;20191;-81
2023/03/28 11:38:52;;;;;;;2.30;2.10;;;11.60;90.20;;;;;;5092731;28;20261;-80
2023/03/28 11:41:21;;;;;;;2.35;1.65;;;11.50;90.50;;;;;;5089382;28;20192;-79
2023/03/28 11:44:04;;;;;;;2.30;2.10;;;11.40;90.00;;;;;;5087108;28;20199;-78
2023/03/28 11:46:42;;;;;;;4.20;1.80;;;11.20;90.30;;;;;;5099658;28;20187;-78
2023/03/28 11:49:37;;;;;;;4.75;1.80;;;11.00;89.30;;;;;;5103276;28;20276;-82
2023/03/28 11:52:19;;;;;;;2.55;2.35;;;10.70;91.10;;;;;;5088571;28;20300;-82
2023/03/28 11:55:00;;;;;;;2.90;2.00;;;10.70;91.30;;;;;;5092443;28;20180;-82
2023/03/28 11:57:35;;;;;;;10.85;2.78;;;10.80;91.10;;;;;;5090257;28;20670;-79
2023/03/28 12:00:20;;;;;;;5.97;2.00;;;10.80;90.00;;;;;;5083364;28;20219;-83
2023/03/28 12:03:11;;;;;;;6.10;2.45;;;10.70;89.80;;;;;;5089806;28;20235;-80
2023/03/28 12:05:51;;;;;;;2.25;1.90;;;10.80;90.60;;;;;;5085740;28;20173;-82
2023/03/28 12:08:25;;;;;;;3.90;2.15;;;10.90;89.50;;;;;;5093334;28;20296;-79
2023/03/28 12:10:57;;;;;;;5.10;2.67;;;11.00;89.20;;;;;;5089676;28;20192;-83
2023/03/28 12:13:47;;;;;;;4.53;2.28;;;11.00;90.10;;;;;;5087667;28;20918;-79
2023/03/28 12:16:22;;;;;;;4.90;2.67;;;10.60;92.40;;;;;;5090165;28;20199;-80
2023/03/28 12:18:57;;;;;;;4.22;2.70;;;9.90;96.00;;;;;;5094248;28;20212;-82
2023/03/28 12:21:48;;;;;;;2.80;1.70;;;9.20;97.90;;;;;;5105429;27;20234;-80
2023/03/28 12:24:37;;;;;;;2.97;2.30;;;8.50;99.20;;;;;;5088709;28;20180;-79
2023/03/28 12:27:15;;;;;;;2.90;2.53;;;7.90;99.90;;;;;;5084894;28;20365;-78
2023/03/28 12:29:59;;;;;;;2.97;2.40;;;7.50;99.90;;;;;;5091592;28;20200;-79
2023/03/28 12:32:47;;;;;;;2.80;2.60;;;7.20;99.90;;;;;;5095180;28;20212;-78
2023/03/28 12:35:40;;;;;;;2.97;2.60;;;7.00;99.90;;;;;;5086683;28;20180;-78
2023/03/28 12:38:28;;;;;;;3.00;2.80;;;6.90;99.90;;;;;;5087299;28;20251;-79
2023/03/28 12:40:54;;;;;;;2.83;2.58;;;7.00;99.90;;;;;;5090986;28;20259;-79
2023/03/28 12:43:48;;;;;;;4.28;2.05;;;7.30;99.90;;;;;;5092101;28;20208;-79
2023/03/28 12:46:33;;;;;;;3.13;1.80;;;7.60;99.90;;;;;;5090394;28;20197;-83
2023/03/28 12:49:11;;;;;;;2.78;2.10;;;7.80;99.90;;;;;;5087476;28;20192;-79
2023/03/28 12:51:39;;;;;;;2.10;1.83;;;7.80;99.90;;;;;;5097427;28;20184;-82
2023/03/28 12:54:07;;;;;;;4.10;2.13;;;7.90;99.90;;;;;;5094467;28;20181;-79
2023/03/28 12:56:33;;;;;;;2.50;1.80;;;8.10;99.90;;;;;;5079439;28;20449;-79
2023/03/28 12:58:59;;;;;;;3.15;1.58;;;8.30;99.90;;;;;;5083376;28;20248;-81
2023/03/28 13:01:47;;;;;;;2.43;1.93;;;8.30;99.90;;;;;;5083837;28;20602;-82
2023/03/28 13:04:25;;;;;;;2.72;2.05;;;8.40;99.90;;;;;;5075716;28;20860;-79
2023/03/28 13:07:03;;;;;;;2.05;1.85;;;8.50;99.90;;;;;;5079490;28;20727;-78
2023/03/28 13:09:54;;;;;;;1.75;1.60;;;8.70;99.90;;;;;;5089867;28;20187;-82
2023/03/28 13:12:55;;;;;;;1.77;1.67;;;8.80;99.90;;;;;;5084092;28;20204;-82
2023/03/28 13:15:27;;;;;;;2.45;1.30;;;9.00;99.90;;;;;;5092286;28;20215;-82
2023/03/28 13:18:21;;;;;;;2.15;1.35;;;9.20;99.90;;;;;;5088594;28;20296;-79
2023/03/28 13:20:51;;;;;;;2.22;1.50;;;9.30;99.80;;;;;;5077729;28;20330;-78